sensor_id;sensor_type;location;lat;lon;timestamp;pressure;altitude;pressure_sealevel;temperature;humidity
69848;BME280;57143;55.940;37.496;2022-11-20T00:01:13;98139.63;;;-3.79;100.00
69848;BME280;57143;55.940;37.496;2022-11-20T00:03:40;98192.72;;;-3.48;100.00
69848;BME280;57143;55.940;37.496;2022-11-20T00:06:11;98191.25;;;-3.51;100.00
69848;BME280;57143;55.940;37.496;2022-11-20T00:08:38;98157.16;;;-3.70;100.00
69848;BME280;57143;55.940;37.496;2022-11-20T00:11:07;98178.50;;;-3.64;100.00
69848;BME280;57143;55.940;37.496;2022-11-20T00:13:35;98186.44;;;-3.56;100.00
69848;BME280;57143;55.940;37.496;2022-11-20T00:16:04;98174.69;;;-3.61;100.00
69848;BME280;57143;55.940;37.496;2022-11-20T00:18:32;98178.50;;;-3.64;100.00
69848;BME280;57143;55.940;37.496;2022-11-20T00:21:03;98180.31;;;-3.56;100.00
69848;BME280;57143;55.940;37.496;2022-11-20T00:23:31;98161.13;;;-3.74;100.00
69848;BME280;57143;55.940;37.496;2022-11-20T00:26:02;98169.06;;;-3.58;100.00
69848;BME280;57143;55.940;37.496;2022-11-20T00:28:30;98170.22;;;-3.69;100.00
69848;BME280;57143;55.940;37.496;2022-11-20T00:31:01;98188.91;;;-3.62;100.00
69848;BME280;57143;55.940;37.496;2022-11-20T00:33:29;98130.88;;;-3.96;100.00
69848;BME280;57143;55.940;37.496;2022-11-20T00:35:59;98191.38;;;-3.61;100.00
69848;BME280;57143;55.940;37.496;2022-11-20T00:38:26;98180.16;;;-3.63;100.00
69848;BME280;57143;55.940;37.496;2022-11-20T00:40:56;98190.59;;;-3.61;100.00
69848;BME280;57143;55.940;37.496;2022-11-20T00:43:24;98107.88;;;-4.11;100.00
69848;BME280;57143;55.940;37.496;2022-11-20T00:45:56;98183.44;;;-3.61;100.00
69848;BME280;57143;55.940;37.496;2022-11-20T00:48:24;98182.16;;;-3.65;100.00
69848;BME280;57143;55.940;37.496;2022-11-20T00:50:51;98179.50;;;-3.65;100.00
69848;BME280;57143;55.940;37.496;2022-11-20T00:53:18;98167.22;;;-3.66;100.00
69848;BME280;57143;55.940;37.496;2022-11-20T00:55:53;98185.75;;;-3.66;100.00
69848;BME280;57143;55.940;37.496;2022-11-20T00:58:22;98136.31;;;-3.97;100.00
69848;BME280;57143;55.940;37.496;2022-11-20T01:00:49;98170.72;;;-3.73;100.00
69848;BME280;57143;55.940;37.496;2022-11-20T01:03:16;98133.31;;;-4.10;100.00
69848;BME280;57143;55.940;37.496;2022-11-20T01:05:46;98164.59;;;-3.82;100.00
69848;BME280;57143;55.940;37.496;2022-11-20T01:08:13;98169.56;;;-3.71;100.00
69848;BME280;57143;55.940;37.496;2022-11-20T01:10:40;98143.75;;;-3.93;100.00
69848;BME280;57143;55.940;37.496;2022-11-20T01:13:07;98166.91;;;-3.71;100.00
69848;BME280;57143;55.940;37.496;2022-11-20T01:15:53;98127.88;;;-4.01;100.00
69848;BME280;57143;55.940;37.496;2022-11-20T01:18:20;98141.47;;;-3.80;100.00
69848;BME280;57143;55.940;37.496;2022-11-20T01:20:47;98161.63;;;-3.71;100.00
69848;BME280;57143;55.940;37.496;2022-11-20T01:23:14;98163.78;;;-3.90;100.00
69848;BME280;57143;55.940;37.496;2022-11-20T01:25:41;98170.06;;;-3.75;100.00
69848;BME280;57143;55.940;37.496;2022-11-20T01:28:08;98162.97;;;-3.75;100.00
69848;BME280;57143;55.940;37.496;2022-11-20T01:30:35;98167.59;;;-3.77;100.00
69848;BME280;57143;55.940;37.496;2022-11-20T01:33:04;98156.84;;;-3.75;100.00
69848;BME280;57143;55.940;37.496;2022-11-20T01:35:31;98172.03;;;-3.77;100.00
69848;BME280;57143;55.940;37.496;2022-11-20T01:37:58;98166.91;;;-3.79;100.00
69848;BME280;57143;55.940;37.496;2022-11-20T01:40:26;98175.53;;;-3.77;100.00
69848;BME280;57143;55.940;37.496;2022-11-20T01:43:12;98181.78;;;-3.78;100.00
69848;BME280;57143;55.940;37.496;2022-11-20T01:46:14;98162.59;;;-3.88;100.00
69848;BME280;57143;55.940;37.496;2022-11-20T01:48:48;98165.75;;;-3.84;100.00
69848;BME280;57143;55.940;37.496;2022-11-20T01:51:21;98177.19;;;-3.84;100.00
69848;BME280;57143;55.940;37.496;2022-11-20T01:53:50;98182.81;;;-3.79;100.00
69848;BME280;57143;55.940;37.496;2022-11-20T01:56:18;98178.50;;;-3.80;100.00
69848;BME280;57143;55.940;37.496;2022-11-20T01:58:49;98193.38;;;-3.79;100.00
69848;BME280;57143;55.940;37.496;2022-11-20T02:01:18;98195.19;;;-3.79;100.00
69848;BME280;57143;55.940;37.496;2022-11-20T02:03:47;98203.13;;;-3.79;100.00
69848;BME280;57143;55.940;37.496;2022-11-20T02:06:20;98196.88;;;-3.78;100.00
69848;BME280;57143;55.940;37.496;2022-11-20T02:08:50;98191.25;;;-3.83;100.00
69848;BME280;57143;55.940;37.496;2022-11-20T02:11:17;98132.03;;;-4.14;100.00
69848;BME280;57143;55.940;37.496;2022-11-20T02:13:45;98179.31;;;-3.87;100.00
69848;BME280;57143;55.940;37.496;2022-11-20T02:16:14;98188.44;;;-3.82;100.00
69848;BME280;57143;55.940;37.496;2022-11-20T02:18:43;98197.03;;;-3.80;100.00
69848;BME280;57143;55.940;37.496;2022-11-20T02:21:21;98197.88;;;-3.71;100.00
69848;BME280;57143;55.940;37.496;2022-11-20T02:24:09;98107.19;;;-4.29;100.00
69848;BME280;57143;55.940;37.496;2022-11-20T02:26:42;98198.38;;;-3.68;100.00
69848;BME280;57143;55.940;37.496;2022-11-20T02:29:11;98192.41;;;-3.70;100.00
69848;BME280;57143;55.940;37.496;2022-11-20T02:31:40;98194.84;;;-3.76;100.00
69848;BME280;57143;55.940;37.496;2022-11-20T02:34:09;98196.19;;;-3.72;100.00
69848;BME280;57143;55.940;37.496;2022-11-20T02:36:38;98199.69;;;-3.72;100.00
69848;BME280;57143;55.940;37.496;2022-11-20T02:39:07;98190.91;;;-3.72;100.00
69848;BME280;57143;55.940;37.496;2022-11-20T02:41:37;98194.38;;;-3.72;100.00
69848;BME280;57143;55.940;37.496;2022-11-20T02:44:05;98193.06;;;-3.68;100.00
69848;BME280;57143;55.940;37.496;2022-11-20T02:46:32;98201.66;;;-3.66;100.00
69848;BME280;57143;55.940;37.496;2022-11-20T02:49:01;98161.78;;;-3.80;100.00
69848;BME280;57143;55.940;37.496;2022-11-20T02:51:28;98199.00;;;-3.66;100.00
69848;BME280;57143;55.940;37.496;2022-11-20T02:53:55;98200.00;;;-3.67;100.00
69848;BME280;57143;55.940;37.496;2022-11-20T02:56:23;98202.66;;;-3.67;100.00
69848;BME280;57143;55.940;37.496;2022-11-20T02:58:51;98188.72;;;-3.85;100.00
69848;BME280;57143;55.940;37.496;2022-11-20T03:01:18;98178.50;;;-3.80;100.00
69848;BME280;57143;55.940;37.496;2022-11-20T03:03:45;98198.69;;;-3.63;100.00
69848;BME280;57143;55.940;37.496;2022-11-20T03:06:14;98202.50;;;-3.65;100.00
69848;BME280;57143;55.940;37.496;2022-11-20T03:08:42;98199.19;;;-3.59;100.00
69848;BME280;57143;55.940;37.496;2022-11-20T03:11:09;98204.63;;;-3.61;100.00
69848;BME280;57143;55.940;37.496;2022-11-20T03:13:38;98202.16;;;-3.62;100.00
69848;BME280;57143;55.940;37.496;2022-11-20T03:16:07;98205.63;;;-3.62;100.00
69848;BME280;57143;55.940;37.496;2022-11-20T03:18:34;98200.50;;;-3.63;100.00
69848;BME280;57143;55.940;37.496;2022-11-20T03:21:01;98191.22;;;-3.67;100.00
69848;BME280;57143;55.940;37.496;2022-11-20T03:23:29;98201.47;;;-3.64;100.00
69848;BME280;57143;55.940;37.496;2022-11-20T03:26:07;98196.19;;;-3.64;100.00
69848;BME280;57143;55.940;37.496;2022-11-20T03:28:34;98199.66;;;-3.64;100.00
69848;BME280;57143;55.940;37.496;2022-11-20T03:31:07;98191.91;;;-3.65;100.00
69848;BME280;57143;55.940;37.496;2022-11-20T03:33:34;98199.50;;;-3.62;100.00
69848;BME280;57143;55.940;37.496;2022-11-20T03:36:02;98196.38;;;-3.74;100.00
69848;BME280;57143;55.940;37.496;2022-11-20T03:38:30;98205.81;;;-3.71;100.00
69848;BME280;57143;55.940;37.496;2022-11-20T03:41:01;98207.28;;;-3.69;100.00
69848;BME280;57143;55.940;37.496;2022-11-20T03:43:29;98208.13;;;-3.68;100.00
69848;BME280;57143;55.940;37.496;2022-11-20T03:45:56;98190.91;;;-3.80;100.00
69848;BME280;57143;55.940;37.496;2022-11-20T03:48:25;98202.00;;;-3.77;100.00
69848;BME280;57143;55.940;37.496;2022-11-20T03:50:52;98209.44;;;-3.72;100.00
69848;BME280;57143;55.940;37.496;2022-11-20T03:53:20;98202.66;;;-3.75;100.00
69848;BME280;57143;55.940;37.496;2022-11-20T03:55:50;98208.63;;;-3.65;100.00
69848;BME280;57143;55.940;37.496;2022-11-20T03:58:17;98210.59;;;-3.67;100.00
69848;BME280;57143;55.940;37.496;2022-11-20T04:00:44;98205.13;;;-3.73;100.00
69848;BME280;57143;55.940;37.496;2022-11-20T04:03:11;98225.47;;;-3.66;100.00
69848;BME280;57143;55.940;37.496;2022-11-20T04:05:40;98215.38;;;-3.70;100.00
69848;BME280;57143;55.940;37.496;2022-11-20T04:08:07;98223.84;;;-3.67;100.00
69848;BME280;57143;55.940;37.496;2022-11-20T04:10:34;98232.78;;;-3.68;100.00
69848;BME280;57143;55.940;37.496;2022-11-20T04:13:01;98223.84;;;-3.67;100.00
69848;BME280;57143;55.940;37.496;2022-11-20T04:15:28;98219.22;;;-3.65;100.00
69848;BME280;57143;55.940;37.496;2022-11-20T04:17:55;98228.97;;;-3.65;100.00
69848;BME280;57143;55.940;37.496;2022-11-20T04:20:22;98234.41;;;-3.67;100.00
69848;BME280;57143;55.940;37.496;2022-11-20T04:22:52;98241.84;;;-3.62;100.00
69848;BME280;57143;55.940;37.496;2022-11-20T04:25:20;98215.91;;;-3.75;100.00
69848;BME280;57143;55.940;37.496;2022-11-20T04:27:47;98240.88;;;-3.61;100.00
69848;BME280;57143;55.940;37.496;2022-11-20T04:30:14;98248.66;;;-3.60;100.00
69848;BME280;57143;55.940;37.496;2022-11-20T04:32:41;98220.50;;;-3.85;100.00
69848;BME280;57143;55.940;37.496;2022-11-20T04:35:08;98267.19;;;-3.60;100.00
69848;BME280;57143;55.940;37.496;2022-11-20T04:37:35;98259.59;;;-3.63;100.00
69848;BME280;57143;55.940;37.496;2022-11-20T04:40:05;98261.06;;;-3.60;100.00
69848;BME280;57143;55.940;37.496;2022-11-20T04:42:32;98276.59;;;-3.57;100.00
69848;BME280;57143;55.940;37.496;2022-11-20T04:44:59;98271.66;;;-3.60;100.00
69848;BME280;57143;55.940;37.496;2022-11-20T04:47:26;98270.97;;;-3.62;100.00
69848;BME280;57143;55.940;37.496;2022-11-20T04:49:53;98282.06;;;-3.59;100.00
69848;BME280;57143;55.940;37.496;2022-11-20T04:52:20;98277.78;;;-3.60;100.00
69848;BME280;57143;55.940;37.496;2022-11-20T04:54:47;98289.72;;;-3.56;100.00
69848;BME280;57143;55.940;37.496;2022-11-20T04:57:15;98293.00;;;-3.54;100.00
69848;BME280;57143;55.940;37.496;2022-11-20T04:59:42;98290.38;;;-3.45;100.00
69848;BME280;57143;55.940;37.496;2022-11-20T05:02:10;98293.84;;;-3.45;100.00
69848;BME280;57143;55.940;37.496;2022-11-20T05:04:37;98297.31;;;-3.53;100.00
69848;BME280;57143;55.940;37.496;2022-11-20T05:07:04;98304.94;;;-3.49;100.00
69848;BME280;57143;55.940;37.496;2022-11-20T05:09:31;98292.03;;;-3.53;100.00
69848;BME280;57143;55.940;37.496;2022-11-20T05:11:58;98309.56;;;-3.52;100.00
69848;BME280;57143;55.940;37.496;2022-11-20T05:14:27;98308.25;;;-3.47;100.00
69848;BME280;57143;55.940;37.496;2022-11-20T05:16:54;98307.75;;;-3.59;100.00
69848;BME280;57143;55.940;37.496;2022-11-20T05:19:21;98321.47;;;-3.56;100.00
69848;BME280;57143;55.940;37.496;2022-11-20T05:21:48;98286.19;;;-3.72;100.00
69848;BME280;57143;55.940;37.496;2022-11-20T05:24:15;98316.31;;;-3.65;100.00
69848;BME280;57143;55.940;37.496;2022-11-20T05:26:42;98318.34;;;-3.59;100.00
69848;BME280;57143;55.940;37.496;2022-11-20T05:29:10;98325.59;;;-3.53;100.00
69848;BME280;57143;55.940;37.496;2022-11-20T05:31:40;98333.22;;;-3.50;100.00
69848;BME280;57143;55.940;37.496;2022-11-20T05:34:07;98332.41;;;-3.50;100.00
69848;BME280;57143;55.940;37.496;2022-11-20T05:36:35;98343.16;;;-3.52;100.00
69848;BME280;57143;55.940;37.496;2022-11-20T05:39:02;98337.38;;;-3.56;100.00
69848;BME280;57143;55.940;37.496;2022-11-20T05:41:29;98331.75;;;-3.53;100.00
69848;BME280;57143;55.940;37.496;2022-11-20T05:43:56;98341.31;;;-3.52;100.00
69848;BME280;57143;55.940;37.496;2022-11-20T05:46:24;98326.59;;;-3.54;100.00
69848;BME280;57143;55.940;37.496;2022-11-20T05:48:53;98345.47;;;-3.41;100.00
69848;BME280;57143;55.940;37.496;2022-11-20T05:51:20;98358.06;;;-3.43;100.00
69848;BME280;57143;55.940;37.496;2022-11-20T05:53:47;98348.63;;;-3.45;100.00
69848;BME280;57143;55.940;37.496;2022-11-20T05:56:16;98358.56;;;-3.47;100.00
69848;BME280;57143;55.940;37.496;2022-11-20T05:58:44;98355.41;;;-3.43;100.00
69848;BME280;57143;55.940;37.496;2022-11-20T06:01:13;98297.22;;;-3.85;100.00
69848;BME280;57143;55.940;37.496;2022-11-20T06:03:41;98368.34;;;-3.40;100.00
69848;BME280;57143;55.940;37.496;2022-11-20T06:06:13;98368.47;;;-3.49;100.00
69848;BME280;57143;55.940;37.496;2022-11-20T06:08:41;98374.13;;;-3.36;100.00
69848;BME280;57143;55.940;37.496;2022-11-20T06:11:09;98376.97;;;-3.30;100.00
69848;BME280;57143;55.940;37.496;2022-11-20T06:13:37;98373.66;;;-3.40;100.00
69848;BME280;57143;55.940;37.496;2022-11-20T06:16:05;98384.41;;;-3.33;100.00
69848;BME280;57143;55.940;37.496;2022-11-20T06:18:32;98386.72;;;-3.30;100.00
69848;BME280;57143;55.940;37.496;2022-11-20T06:21:01;98387.56;;;-3.22;100.00
69848;BME280;57143;55.940;37.496;2022-11-20T06:23:31;98393.38;;;-3.18;100.00
69848;BME280;57143;55.940;37.496;2022-11-20T06:26:01;98392.69;;;-3.20;100.00
69848;BME280;57143;55.940;37.496;2022-11-20T06:28:29;98396.19;;;-3.20;100.00
69848;BME280;57143;55.940;37.496;2022-11-20T06:30:56;98402.00;;;-3.08;100.00
69848;BME280;57143;55.940;37.496;2022-11-20T06:33:23;98403.31;;;-3.04;100.00
69848;BME280;57143;55.940;37.496;2022-11-20T06:35:51;98404.00;;;-3.02;100.00
69848;BME280;57143;55.940;37.496;2022-11-20T06:38:18;98404.34;;;-2.97;100.00
69848;BME280;57143;55.940;37.496;2022-11-20T06:40:46;98388.06;;;-3.10;100.00
69848;BME280;57143;55.940;37.496;2022-11-20T06:43:14;98418.09;;;-2.94;100.00
69848;BME280;57143;55.940;37.496;2022-11-20T06:45:41;98419.09;;;-2.87;100.00
69848;BME280;57143;55.940;37.496;2022-11-20T06:48:08;98405.84;;;-2.87;100.00
69848;BME280;57143;55.940;37.496;2022-11-20T06:50:36;98413.28;;;-2.74;100.00
69848;BME280;57143;55.940;37.496;2022-11-20T06:53:04;98386.59;;;-2.81;100.00
69848;BME280;57143;55.940;37.496;2022-11-20T06:55:31;98402.38;;;-2.71;100.00
69848;BME280;57143;55.940;37.496;2022-11-20T06:58:00;98421.91;;;-2.72;100.00
69848;BME280;57143;55.940;37.496;2022-11-20T07:00:27;98412.31;;;-2.73;100.00
69848;BME280;57143;55.940;37.496;2022-11-20T07:02:55;98413.13;;;-2.73;100.00
69848;BME280;57143;55.940;37.496;2022-11-20T07:05:22;98409.31;;;-2.70;100.00
69848;BME280;57143;55.940;37.496;2022-11-20T07:07:49;98413.78;;;-2.55;100.00
69848;BME280;57143;55.940;37.496;2022-11-20T07:10:16;98395.72;;;-2.67;100.00
69848;BME280;57143;55.940;37.496;2022-11-20T07:12:49;98428.38;;;-2.51;100.00
69848;BME280;57143;55.940;37.496;2022-11-20T07:15:19;98405.50;;;-2.84;100.00
69848;BME280;57143;55.940;37.496;2022-11-20T07:17:46;98444.28;;;-2.67;100.00
69848;BME280;57143;55.940;37.496;2022-11-20T07:20:14;98436.81;;;-2.63;100.00
69848;BME280;57143;55.940;37.496;2022-11-20T07:22:41;98443.28;;;-2.66;100.00
69848;BME280;57143;55.940;37.496;2022-11-20T07:25:09;98449.56;;;-2.67;100.00
69848;BME280;57143;55.940;37.496;2022-11-20T07:27:36;98446.09;;;-2.67;100.00
69848;BME280;57143;55.940;37.496;2022-11-20T07:30:04;98454.75;;;-2.57;100.00
69848;BME280;57143;55.940;37.496;2022-11-20T07:32:33;98451.91;;;-2.64;100.00
69848;BME280;57143;55.940;37.496;2022-11-20T07:35:00;98465.66;;;-2.60;100.00
69848;BME280;57143;55.940;37.496;2022-11-20T07:37:27;98476.91;;;-2.50;100.00
69848;BME280;57143;55.940;37.496;2022-11-20T07:39:54;98484.06;;;-2.51;100.00
69848;BME280;57143;55.940;37.496;2022-11-20T07:42:21;98484.03;;;-2.59;100.00
69848;BME280;57143;55.940;37.496;2022-11-20T07:44:48;98489.38;;;-2.51;100.00
69848;BME280;57143;55.940;37.496;2022-11-20T07:47:15;98477.59;;;-2.48;100.00
69848;BME280;57143;55.940;37.496;2022-11-20T07:49:43;98484.03;;;-2.59;100.00
69848;BME280;57143;55.940;37.496;2022-11-20T07:52:10;98497.34;;;-2.51;100.00
69848;BME280;57143;55.940;37.496;2022-11-20T07:54:37;98508.44;;;-2.47;100.00
69848;BME280;57143;55.940;37.496;2022-11-20T07:57:04;98520.69;;;-2.38;100.00
69848;BME280;57143;55.940;37.496;2022-11-20T07:59:31;98518.88;;;-2.46;100.00
69848;BME280;57143;55.940;37.496;2022-11-20T08:01:58;98518.38;;;-2.41;100.00
69848;BME280;57143;55.940;37.496;2022-11-20T08:04:25;98519.72;;;-2.29;100.00
69848;BME280;57143;55.940;37.496;2022-11-20T08:06:54;98529.84;;;-2.24;100.00
69848;BME280;57143;55.940;37.496;2022-11-20T08:09:21;98473.78;;;-2.54;100.00
69848;BME280;57143;55.940;37.496;2022-11-20T08:11:48;98525.53;;;-2.17;100.00
69848;BME280;57143;55.940;37.496;2022-11-20T08:14:32;98534.16;;;-2.07;100.00
69848;BME280;57143;55.940;37.496;2022-11-20T08:16:59;98520.88;;;-2.31;100.00
69848;BME280;57143;55.940;37.496;2022-11-20T08:19:26;98552.72;;;-2.15;100.00
69848;BME280;57143;55.940;37.496;2022-11-20T08:21:55;98551.41;;;-2.19;100.00
69848;BME280;57143;55.940;37.496;2022-11-20T08:24:22;98542.44;;;-2.26;100.00
69848;BME280;57143;55.940;37.496;2022-11-20T08:26:50;98551.25;;;-2.18;100.00
69848;BME280;57143;55.940;37.496;2022-11-20T08:29:17;98562.03;;;-2.19;100.00
69848;BME280;57143;55.940;37.496;2022-11-20T08:31:44;98565.97;;;-2.15;100.00
69848;BME280;57143;55.940;37.496;2022-11-20T08:34:11;98567.97;;;-2.25;100.00
69848;BME280;57143;55.940;37.496;2022-11-20T08:36:38;98563.50;;;-2.17;100.00
69848;BME280;57143;55.940;37.496;2022-11-20T08:39:07;98587.53;;;-2.10;100.00
69848;BME280;57143;55.940;37.496;2022-11-20T08:41:34;98590.06;;;-2.01;100.00
69848;BME280;57143;55.940;37.496;2022-11-20T08:44:03;98598.84;;;-1.92;100.00
69848;BME280;57143;55.940;37.496;2022-11-20T08:46:34;98611.63;;;-1.96;100.00
69848;BME280;57143;55.940;37.496;2022-11-20T08:49:02;98610.13;;;-1.98;100.00
69848;BME280;57143;55.940;37.496;2022-11-20T08:51:29;98621.25;;;-1.87;100.00
69848;BME280;57143;55.940;37.496;2022-11-20T08:53:56;98617.75;;;-1.79;100.00
69848;BME280;57143;55.940;37.496;2022-11-20T08:56:25;98625.06;;;-1.73;100.00
69848;BME280;57143;55.940;37.496;2022-11-20T08:58:53;98622.06;;;-1.86;100.00
69848;BME280;57143;55.940;37.496;2022-11-20T09:01:21;98641.00;;;-1.73;100.00
69848;BME280;57143;55.940;37.496;2022-11-20T09:03:48;98640.00;;;-1.88;100.00
69848;BME280;57143;55.940;37.496;2022-11-20T09:06:16;98635.34;;;-1.94;100.00
69848;BME280;57143;55.940;37.496;2022-11-20T09:08:43;98641.00;;;-1.89;100.00
69848;BME280;57143;55.940;37.496;2022-11-20T09:11:10;98658.75;;;-1.82;100.00
69848;BME280;57143;55.940;37.496;2022-11-20T09:13:39;98683.81;;;-1.84;100.00
69848;BME280;57143;55.940;37.496;2022-11-20T09:16:08;98677.84;;;-1.78;100.00
69848;BME280;57143;55.940;37.496;2022-11-20T09:18:36;98629.53;;;-1.98;100.00
69848;BME280;57143;55.940;37.496;2022-11-20T09:21:07;98694.75;;;-1.79;100.00
69848;BME280;57143;55.940;37.496;2022-11-20T09:23:36;98689.13;;;-1.68;100.00
69848;BME280;57143;55.940;37.496;2022-11-20T09:26:04;98694.28;;;-1.75;100.00
69848;BME280;57143;55.940;37.496;2022-11-20T09:28:31;98711.72;;;-1.64;100.00
69848;BME280;57143;55.940;37.496;2022-11-20T09:31:00;98722.03;;;-1.69;100.00
69848;BME280;57143;55.940;37.496;2022-11-20T09:33:28;98721.53;;;-1.73;100.00
69848;BME280;57143;55.940;37.496;2022-11-20T09:35:55;98726.78;;;-1.89;100.00
69848;BME280;57143;55.940;37.496;2022-11-20T09:38:23;98747.91;;;-1.71;100.00
69848;BME280;57143;55.940;37.496;2022-11-20T09:40:55;98751.03;;;-1.76;100.00
69848;BME280;57143;55.940;37.496;2022-11-20T09:43:30;98756.84;;;-1.72;100.00
69848;BME280;57143;55.940;37.496;2022-11-20T09:46:05;98762.50;;;-1.67;100.00
69848;BME280;57143;55.940;37.496;2022-11-20T09:48:56;98757.91;;;-1.57;100.00
69848;BME280;57143;55.940;37.496;2022-11-20T09:51:37;98767.50;;;-1.48;100.00
69848;BME280;57143;55.940;37.496;2022-11-20T09:54:17;98654.28;;;-2.05;100.00
69848;BME280;57143;55.940;37.496;2022-11-20T09:56:46;98764.22;;;-1.50;100.00
69848;BME280;57143;55.940;37.496;2022-11-20T09:59:27;98732.66;;;-1.61;100.00
69848;BME280;57143;55.940;37.496;2022-11-20T10:01:59;98750.22;;;-1.60;100.00
69848;BME280;57143;55.940;37.496;2022-11-20T10:04:28;98762.41;;;-1.42;100.00
69848;BME280;57143;55.940;37.496;2022-11-20T10:07:02;98752.94;;;-1.28;100.00
69848;BME280;57143;55.940;37.496;2022-11-20T10:09:34;98763.72;;;-1.30;100.00
69848;BME280;57143;55.940;37.496;2022-11-20T10:12:13;98728.16;;;-1.45;100.00
69848;BME280;57143;55.940;37.496;2022-11-20T10:14:54;98760.56;;;-1.25;100.00
69848;BME280;57143;55.940;37.496;2022-11-20T10:17:38;98768.19;;;-1.22;100.00
69848;BME280;57143;55.940;37.496;2022-11-20T10:20:17;98768.38;;;-1.24;100.00
69848;BME280;57143;55.940;37.496;2022-11-20T10:23:00;98775.66;;;-1.26;100.00
69848;BME280;57143;55.940;37.496;2022-11-20T10:25:36;98756.75;;;-1.39;100.00
69848;BME280;57143;55.940;37.496;2022-11-20T10:28:29;98782.66;;;-1.25;100.00
69848;BME280;57143;55.940;37.496;2022-11-20T10:31:03;98782.84;;;-1.26;100.00
69848;BME280;57143;55.940;37.496;2022-11-20T10:33:35;98775.00;;;-1.28;100.00
69848;BME280;57143;55.940;37.496;2022-11-20T10:36:10;98766.03;;;-1.35;100.00
69848;BME280;57143;55.940;37.496;2022-11-20T10:38:43;98786.63;;;-1.21;100.00
69848;BME280;57143;55.940;37.496;2022-11-20T10:41:17;98789.28;;;-1.29;100.00
69848;BME280;57143;55.940;37.496;2022-11-20T10:44:00;98793.44;;;-1.34;100.00
69848;BME280;57143;55.940;37.496;2022-11-20T10:46:34;98775.00;;;-1.44;100.00
69848;BME280;57143;55.940;37.496;2022-11-20T10:49:11;98785.97;;;-1.31;100.00
69848;BME280;57143;55.940;37.496;2022-11-20T10:51:48;98770.03;;;-1.14;100.00
69848;BME280;57143;55.940;37.496;2022-11-20T10:54:22;98772.19;;;-1.18;100.00
69848;BME280;57143;55.940;37.496;2022-11-20T10:56:57;98781.81;;;-1.17;100.00
69848;BME280;57143;55.940;37.496;2022-11-20T10:59:54;98788.47;;;-1.05;100.00
69848;BME280;57143;55.940;37.496;2022-11-20T11:02:24;98745.63;;;-1.26;100.00
69848;BME280;57143;55.940;37.496;2022-11-20T11:05:07;98775.66;;;-1.01;100.00
69848;BME280;57143;55.940;37.496;2022-11-20T11:07:38;98780.81;;;-1.00;100.00
69848;BME280;57143;55.940;37.496;2022-11-20T11:10:15;98787.31;;;-0.86;100.00
69848;BME280;57143;55.940;37.496;2022-11-20T11:12:44;98802.09;;;-0.92;100.00
69848;BME280;57143;55.940;37.496;2022-11-20T11:15:14;98800.94;;;-0.97;100.00
69848;BME280;57143;55.940;37.496;2022-11-20T11:17:46;98804.09;;;-1.02;100.00
69848;BME280;57143;55.940;37.496;2022-11-20T11:20:20;98808.09;;;-1.14;100.00
69848;BME280;57143;55.940;37.496;2022-11-20T11:22:49;98808.09;;;-1.06;100.00
69848;BME280;57143;55.940;37.496;2022-11-20T11:25:24;98808.91;;;-1.13;100.00
69848;BME280;57143;55.940;37.496;2022-11-20T11:27:54;98815.41;;;-1.16;100.00
69848;BME280;57143;55.940;37.496;2022-11-20T11:30:23;98798.78;;;-1.26;100.00
69848;BME280;57143;55.940;37.496;2022-11-20T11:32:50;98805.91;;;-1.19;100.00
69848;BME280;57143;55.940;37.496;2022-11-20T11:35:27;98808.06;;;-1.22;100.00
69848;BME280;57143;55.940;37.496;2022-11-20T11:38:03;98801.59;;;-1.20;100.00
69848;BME280;57143;55.940;37.496;2022-11-20T11:40:32;98793.78;;;-1.13;100.00
69848;BME280;57143;55.940;37.496;2022-11-20T11:43:02;98798.28;;;-1.22;100.00
69848;BME280;57143;55.940;37.496;2022-11-20T11:45:31;98803.28;;;-1.10;100.00
69848;BME280;57143;55.940;37.496;2022-11-20T11:47:58;98767.03;;;-1.36;100.00
69848;BME280;57143;55.940;37.496;2022-11-20T11:50:29;98789.50;;;-1.14;100.00
69848;BME280;57143;55.940;37.496;2022-11-20T11:53:03;98785.50;;;-1.18;100.00
69848;BME280;57143;55.940;37.496;2022-11-20T11:55:35;98767.88;;;-1.35;100.00
69848;BME280;57143;55.940;37.496;2022-11-20T11:58:11;98773.69;;;-1.32;100.00
69848;BME280;57143;55.940;37.496;2022-11-20T12:00:49;98775.16;;;-1.29;100.00
69848;BME280;57143;55.940;37.496;2022-11-20T12:03:21;98774.19;;;-1.28;100.00
69848;BME280;57143;55.940;37.496;2022-11-20T12:05:57;98768.38;;;-1.24;100.00
69848;BME280;57143;55.940;37.496;2022-11-20T12:08:27;98767.22;;;-1.21;100.00
69848;BME280;57143;55.940;37.496;2022-11-20T12:11:01;98777.66;;;-1.11;100.00
69848;BME280;57143;55.940;37.496;2022-11-20T12:13:42;98786.50;;;-1.11;100.00
69848;BME280;57143;55.940;37.496;2022-11-20T12:16:13;98772.84;;;-1.08;100.00
69848;BME280;57143;55.940;37.496;2022-11-20T12:18:41;98753.25;;;-1.15;100.00
69848;BME280;57143;55.940;37.496;2022-11-20T12:21:18;98781.00;;;-1.26;100.00
69848;BME280;57143;55.940;37.496;2022-11-20T12:24:17;98799.59;;;-1.26;100.00
69848;BME280;57143;55.940;37.496;2022-11-20T12:27:00;98801.44;;;-1.18;100.00
69848;BME280;57143;55.940;37.496;2022-11-20T12:29:40;98810.41;;;-1.11;100.00
69848;BME280;57143;55.940;37.496;2022-11-20T12:32:38;98812.06;;;-1.10;100.00
69848;BME280;57143;55.940;37.496;2022-11-20T12:35:20;98816.38;;;-1.17;100.00
69848;BME280;57143;55.940;37.496;2022-11-20T12:38:07;98822.88;;;-1.20;100.00
69848;BME280;57143;55.940;37.496;2022-11-20T12:40:43;98786.47;;;-1.35;100.00
69848;BME280;57143;55.940;37.496;2022-11-20T12:43:18;98813.53;;;-1.16;100.00
69848;BME280;57143;55.940;37.496;2022-11-20T12:46:18;98835.50;;;-1.05;100.00
69848;BME280;57143;55.940;37.496;2022-11-20T12:49:08;98821.72;;;-1.09;100.00
69848;BME280;57143;55.940;37.496;2022-11-20T12:52:04;98837.00;;;-1.03;100.00
69848;BME280;57143;55.940;37.496;2022-11-20T12:57:46;98815.03;;;-1.29;100.00
69848;BME280;57143;55.940;37.496;2022-11-20T13:00:19;98814.69;;;-1.34;100.00